Time;durP1;ratioP1;P1;durP2;ratioP2;P2;SDS_P1;SDS_P2;PMS_P1;PMS_P2;Temp;Humidity;BMP_temperature;BMP_pressure;BME280_temperature;BME280_humidity;BME280_pressure;Samples;Min_cycle;Max_cycle;Signal;HPM_P1;HPM_P2
2022/04/27 00:02:11;;;;;;;11.65;9.20;;;8.40;66.20;;;;;;5110850;28;20092;-82
2022/04/27 00:04:38;;;;;;;12.73;9.25;;;8.40;66.20;;;;;;5110833;28;20047;-82
2022/04/27 00:07:26;;;;;;;13.15;9.38;;;8.40;66.30;;;;;;5110620;28;20059;-82
2022/04/27 00:09:53;;;;;;;12.13;9.10;;;8.40;66.30;;;;;;5110896;28;20105;-82
2022/04/27 00:12:39;;;;;;;10.68;8.88;;;8.40;66.40;;;;;;5112881;28;20467;-82
2022/04/27 00:15:07;;;;;;;13.57;10.40;;;8.30;66.40;;;;;;5112285;28;20047;-82
2022/04/27 00:17:34;;;;;;;13.77;9.23;;;8.30;66.40;;;;;;5110790;28;20097;-82
2022/04/27 00:20:02;;;;;;;11.65;9.25;;;8.30;66.40;;;;;;5110258;28;20466;-82
2022/04/27 00:22:28;;;;;;;10.27;8.27;;;8.30;66.50;;;;;;5110803;28;20562;-82
2022/04/27 00:25:13;;;;;;;10.30;8.93;;;8.20;66.50;;;;;;5096685;28;20034;-82
2022/04/27 00:27:40;;;;;;;12.75;9.68;;;8.20;66.60;;;;;;5111404;28;20047;-82
2022/04/27 00:30:07;;;;;;;10.90;8.93;;;8.20;66.60;;;;;;5112200;28;20092;-82
2022/04/27 00:32:35;;;;;;;13.07;9.50;;;8.20;66.60;;;;;;5110487;28;20097;-82
2022/04/27 00:35:03;;;;;;;14.38;9.98;;;8.10;66.70;;;;;;5110222;28;20069;-82
2022/04/27 00:37:29;;;;;;;11.90;9.05;;;8.10;66.70;;;;;;5110588;28;20512;-82
2022/04/27 00:39:56;;;;;;;12.73;9.45;;;8.10;66.70;;;;;;5110492;28;20047;-82
2022/04/27 00:42:23;;;;;;;12.65;9.35;;;8.00;66.70;;;;;;5112900;28;20048;-82
2022/04/27 00:44:50;;;;;;;11.77;9.10;;;8.00;66.80;;;;;;5110466;28;20044;-82
2022/04/27 00:47:18;;;;;;;14.13;9.85;;;8.00;66.80;;;;;;5110398;28;20101;-82
2022/04/27 00:49:52;;;;;;;14.32;10.05;;;8.00;66.80;;;;;;5110087;28;20043;-82
2022/04/27 00:52:20;;;;;;;11.82;9.40;;;8.00;66.90;;;;;;5109034;28;20048;-82
2022/04/27 00:54:50;;;;;;;13.63;10.18;;;7.90;66.90;;;;;;5110386;28;20101;-82
2022/04/27 00:57:17;;;;;;;12.90;10.15;;;7.90;66.90;;;;;;5112455;28;20051;-82
2022/04/27 00:59:46;;;;;;;13.98;10.98;;;7.90;66.90;;;;;;5110224;28;20048;-82
2022/04/27 01:02:13;;;;;;;10.93;9.15;;;7.90;67.00;;;;;;5110180;28;20092;-82
2022/04/27 01:04:40;;;;;;;14.20;10.13;;;7.90;67.00;;;;;;5108825;28;20077;-82
2022/04/27 01:07:08;;;;;;;13.63;10.45;;;7.90;67.00;;;;;;5110383;28;20039;-82
2022/04/27 01:09:35;;;;;;;13.32;10.07;;;7.80;67.10;;;;;;5111498;28;20195;-82
2022/04/27 01:12:03;;;;;;;11.95;10.02;;;7.80;67.10;;;;;;5108816;28;20077;-82
2022/04/27 01:14:48;;;;;;;13.43;10.55;;;7.80;67.10;;;;;;5110107;28;20160;-82
2022/04/27 01:17:16;;;;;;;12.00;9.90;;;7.80;67.20;;;;;;5110137;28;20101;-82
2022/04/27 01:19:42;;;;;;;12.80;10.32;;;7.70;67.20;;;;;;5109798;28;20056;-82
2022/04/27 01:22:09;;;;;;;13.60;10.20;;;7.70;67.20;;;;;;5110191;28;20088;-82
2022/04/27 01:27:21;;;;;;;14.00;10.23;;;7.70;67.20;;;;;;5111590;28;20101;-82
2022/04/27 01:29:48;;;;;;;14.18;11.15;;;7.60;67.20;;;;;;5110088;28;20051;-82
2022/04/27 01:32:15;;;;;;;11.98;10.68;;;7.60;67.30;;;;;;5108216;28;20052;-82
2022/04/27 01:34:42;;;;;;;12.23;10.38;;;7.60;67.30;;;;;;5110011;28;20492;-82
2022/04/27 01:39:54;;;;;;;13.95;11.07;;;7.50;67.30;;;;;;5113556;28;20073;-82
2022/04/27 01:42:21;;;;;;;14.77;11.40;;;7.50;67.40;;;;;;5114720;28;20048;-82
2022/04/27 01:44:48;;;;;;;13.57;11.38;;;7.50;67.40;;;;;;5113401;28;20104;-82
2022/04/27 01:47:15;;;;;;;13.15;11.00;;;7.50;67.40;;;;;;5113152;28;20047;-82
2022/04/27 01:49:42;;;;;;;14.75;11.20;;;7.50;67.50;;;;;;5113345;28;20050;-82
2022/04/27 01:54:54;;;;;;;13.60;11.43;;;7.40;67.60;;;;;;5113708;28;20043;-82
2022/04/27 01:57:21;;;;;;;14.18;11.15;;;7.40;67.60;;;;;;5115452;28;20054;-82
2022/04/27 01:59:48;;;;;;;13.77;11.13;;;7.40;67.60;;;;;;5113139;28;20394;-82
2022/04/27 02:02:15;;;;;;;15.23;11.38;;;7.40;67.60;;;;;;5112741;28;20496;-82
2022/04/27 02:04:43;;;;;;;12.98;11.13;;;7.40;67.70;;;;;;5113162;28;20158;-82
2022/04/27 02:07:09;;;;;;;13.75;11.20;;;7.40;67.70;;;;;;5113126;28;20043;-82
2022/04/27 02:09:36;;;;;;;17.15;11.32;;;7.30;67.70;;;;;;5114295;27;20081;-82
2022/04/27 02:12:06;;;;;;;15.27;10.75;;;7.30;67.70;;;;;;5114071;28;20055;-82
2022/04/27 02:14:33;;;;;;;13.32;11.07;;;7.30;67.80;;;;;;5112890;28;20043;-82
2022/04/27 02:17:01;;;;;;;13.98;10.80;;;7.30;67.80;;;;;;5112591;28;20424;-82
2022/04/27 02:19:28;;;;;;;14.57;11.20;;;7.30;67.80;;;;;;5112866;28;20043;-82
2022/04/27 02:21:57;;;;;;;15.73;11.07;;;7.20;67.80;;;;;;5112544;28;20089;-82
2022/04/27 02:24:25;;;;;;;15.45;11.23;;;7.20;67.90;;;;;;5114837;28;20051;-82
2022/04/27 02:26:54;;;;;;;14.95;12.07;;;7.20;67.90;;;;;;5112625;28;20089;-82
2022/04/27 02:29:22;;;;;;;13.68;11.20;;;7.20;67.90;;;;;;5112609;28;20075;-82
2022/04/27 02:31:49;;;;;;;13.88;11.32;;;7.20;68.00;;;;;;5112208;28;20044;-82
2022/04/27 02:34:17;;;;;;;12.32;10.75;;;7.10;68.00;;;;;;5112729;28;20101;-82
2022/04/27 02:36:44;;;;;;;14.63;11.55;;;7.10;68.00;;;;;;5112993;28;20055;-82
2022/04/27 02:39:10;;;;;;;14.52;12.00;;;7.10;68.10;;;;;;5112276;28;20051;-82
2022/04/27 02:41:37;;;;;;;15.98;11.77;;;7.10;68.10;;;;;;5112533;28;20055;-83
2022/04/27 02:44:04;;;;;;;14.07;11.02;;;7.10;68.20;;;;;;5112363;28;20047;-83
2022/04/27 02:46:31;;;;;;;14.73;11.10;;;7.00;68.20;;;;;;5112332;28;20043;-84
2022/04/27 02:51:51;;;;;;;13.65;11.52;;;7.00;68.30;;;;;;5110717;28;20398;-82
2022/04/27 02:54:19;;;;;;;;;;;7.00;68.30;;;;;;5113799;28;20413;-81
2022/04/27 02:56:47;;;;;;;15.15;11.35;;;7.00;68.40;;;;;;5112138;28;19952;-83
2022/04/27 02:59:15;;;;;;;16.20;12.05;;;7.00;68.40;;;;;;5111818;28;20050;-83
2022/04/27 03:01:42;;;;;;;16.58;11.90;;;6.90;68.50;;;;;;5110732;28;20039;-83
2022/04/27 03:04:10;;;;;;;15.30;12.10;;;6.90;68.50;;;;;;5112089;28;20101;-83
2022/04/27 03:06:37;;;;;;;15.02;11.57;;;6.90;68.50;;;;;;5113732;27;20055;-82
2022/04/27 03:09:04;;;;;;;15.27;12.07;;;6.90;68.60;;;;;;5113017;28;20048;-82
2022/04/27 03:11:30;;;;;;;15.02;11.73;;;6.90;68.60;;;;;;5111715;28;20039;-82
2022/04/27 03:13:57;;;;;;;15.82;11.52;;;6.90;68.60;;;;;;5111338;28;20101;-82
2022/04/27 03:16:25;;;;;;;13.27;11.88;;;6.90;68.60;;;;;;5111904;28;20039;-82
2022/04/27 03:18:51;;;;;;;14.13;11.75;;;6.90;68.70;;;;;;5111829;28;20190;-82
2022/04/27 03:21:19;;;;;;;14.52;12.00;;;6.90;68.70;;;;;;5113789;28;20451;-82
2022/04/27 03:23:45;;;;;;;14.13;12.15;;;6.80;68.70;;;;;;5111633;28;20043;-83
2022/04/27 03:26:12;;;;;;;14.77;12.30;;;6.80;68.70;;;;;;5111490;28;20051;-83
2022/04/27 03:28:39;;;;;;;16.85;12.27;;;6.80;68.80;;;;;;5109693;28;20054;-83
2022/04/27 03:31:06;;;;;;;13.73;12.10;;;6.80;68.80;;;;;;5111674;28;20043;-82
2022/04/27 03:33:33;;;;;;;15.82;12.15;;;6.80;68.80;;;;;;5112921;28;20526;-83
2022/04/27 03:36:00;;;;;;;16.48;12.38;;;6.80;68.90;;;;;;5112302;28;20101;-83
2022/04/27 03:38:27;;;;;;;16.80;12.10;;;6.80;68.90;;;;;;5111008;28;20112;-82
2022/04/27 03:40:54;;;;;;;16.90;12.18;;;6.70;68.90;;;;;;5110071;28;20047;-82
2022/04/27 03:43:21;;;;;;;16.63;11.82;;;6.70;69.00;;;;;;5111054;28;20035;-83
2022/04/27 03:45:48;;;;;;;14.63;12.23;;;6.70;69.00;;;;;;5111333;28;20044;-82
2022/04/27 03:48:15;;;;;;;16.88;12.48;;;6.70;69.00;;;;;;5113242;28;20462;-82
2022/04/27 03:50:41;;;;;;;16.38;11.93;;;6.70;69.00;;;;;;5111123;28;20047;-82
2022/04/27 03:53:09;;;;;;;14.65;11.88;;;6.70;69.10;;;;;;5111041;28;20104;-82
2022/04/27 03:55:36;;;;;;;17.58;11.50;;;6.70;69.10;;;;;;5111035;28;20047;-82
2022/04/27 03:58:06;;;;;;;14.63;12.15;;;6.70;69.10;;;;;;5110472;28;20051;-82
2022/04/27 04:00:33;;;;;;;16.17;12.70;;;6.60;69.20;;;;;;5112657;28;20044;-82
2022/04/27 04:03:19;;;;;;;17.05;13.05;;;6.60;69.20;;;;;;5110245;28;20048;-82
2022/04/27 04:05:49;;;;;;;17.10;13.20;;;6.60;69.30;;;;;;5110827;28;20048;-82
2022/04/27 04:08:16;;;;;;;16.38;12.75;;;6.60;69.30;;;;;;5109278;28;20048;-82
2022/04/27 04:10:45;;;;;;;15.65;12.63;;;6.60;69.30;;;;;;5110758;28;20104;-83
2022/04/27 04:13:13;;;;;;;15.90;12.88;;;6.60;69.30;;;;;;5110542;28;20096;-82
2022/04/27 04:15:39;;;;;;;15.93;12.77;;;6.50;69.40;;;;;;5111570;28;20073;-82
2022/04/27 04:18:07;;;;;;;15.75;13.15;;;6.50;69.40;;;;;;5112395;28;20116;-82
2022/04/27 04:20:34;;;;;;;15.07;12.35;;;6.50;69.50;;;;;;5109528;28;20040;-82
2022/04/27 04:23:01;;;;;;;17.95;12.68;;;6.50;69.50;;;;;;5110741;28;20054;-82
2022/04/27 04:28:31;;;;;;;16.50;13.32;;;6.50;69.60;;;;;;5096054;28;20040;-83
2022/04/27 04:31:00;;;;;;;16.30;13.20;;;6.50;69.60;;;;;;5109439;28;20168;-84
2022/04/27 04:33:28;;;;;;;14.82;12.63;;;6.40;69.60;;;;;;5108330;28;20051;-83
2022/04/27 04:35:56;;;;;;;15.52;13.32;;;6.50;69.70;;;;;;5110764;28;20048;-82
2022/04/27 04:38:23;;;;;;;16.73;13.90;;;6.40;69.70;;;;;;5110179;28;20055;-84
2022/04/27 04:40:52;;;;;;;18.30;13.95;;;6.40;69.80;;;;;;5110063;28;20459;-83
2022/04/27 04:43:19;;;;;;;17.20;13.82;;;6.40;69.80;;;;;;5110576;28;20048;-84
2022/04/27 04:45:46;;;;;;;16.95;13.63;;;6.40;69.90;;;;;;5111266;28;20047;-82
2022/04/27 04:48:14;;;;;;;18.13;13.93;;;6.40;69.90;;;;;;5110711;28;20051;-83
2022/04/27 04:50:40;;;;;;;19.67;14.48;;;6.40;69.90;;;;;;5110291;28;20052;-83
2022/04/27 04:53:08;;;;;;;16.65;13.90;;;6.40;70.00;;;;;;5110336;28;20044;-82
2022/04/27 04:55:35;;;;;;;16.65;14.20;;;6.40;70.10;;;;;;5110072;28;20047;-82
2022/04/27 04:58:02;;;;;;;17.10;14.20;;;6.40;70.10;;;;;;5109076;28;20047;-82
2022/04/27 05:00:29;;;;;;;19.02;13.95;;;6.40;70.20;;;;;;5112553;28;20447;-82
2022/04/27 05:02:57;;;;;;;16.17;14.38;;;6.40;70.20;;;;;;5107896;28;20055;-82
2022/04/27 05:05:24;;;;;;;18.95;14.10;;;6.30;70.30;;;;;;5110245;28;20046;-82
2022/04/27 05:07:51;;;;;;;16.52;13.88;;;6.30;70.30;;;;;;5110189;28;20048;-83
2022/04/27 05:10:18;;;;;;;16.88;14.98;;;6.30;70.40;;;;;;5110329;28;20044;-83
2022/04/27 05:12:45;;;;;;;17.33;15.52;;;6.30;70.50;;;;;;5114355;28;20055;-83
2022/04/27 05:15:12;;;;;;;20.88;15.20;;;6.30;70.50;;;;;;5114073;28;20451;-82
2022/04/27 05:17:40;;;;;;;17.83;14.55;;;6.30;70.60;;;;;;5113997;28;20082;-83
2022/04/27 05:20:07;;;;;;;19.95;15.77;;;6.30;70.70;;;;;;5113979;28;20452;-85
2022/04/27 05:22:38;;;;;;;16.45;14.60;;;6.30;70.80;;;;;;5114156;28;20048;-84
2022/04/27 05:25:07;;;;;;;17.38;14.35;;;6.30;70.90;;;;;;5112325;28;20526;-84
2022/04/27 05:27:34;;;;;;;19.17;15.82;;;6.30;71.00;;;;;;5115234;28;20051;-84
2022/04/27 05:32:48;;;;;;;18.27;15.45;;;6.30;71.20;;;;;;5113669;28;20043;-84
2022/04/27 05:35:15;;;;;;;20.80;15.85;;;6.30;71.30;;;;;;5113741;28;20097;-83
2022/04/27 05:37:42;;;;;;;18.17;15.10;;;6.30;71.40;;;;;;5112249;27;20048;-83
2022/04/27 05:40:11;;;;;;;17.85;15.93;;;6.30;71.60;;;;;;5113273;28;20455;-84
2022/04/27 05:42:39;;;;;;;20.02;16.30;;;6.30;71.70;;;;;;5114776;28;20112;-83
2022/04/27 05:45:10;;;;;;;18.30;15.50;;;6.30;71.80;;;;;;5115000;28;20043;-83
2022/04/27 05:47:37;;;;;;;20.38;16.50;;;6.30;71.90;;;;;;5113422;28;20112;-82
2022/04/27 05:50:04;;;;;;;21.23;16.90;;;6.40;72.00;;;;;;5113476;28;20044;-82
2022/04/27 05:52:46;;;;;;;20.60;17.00;;;6.40;72.10;;;;;;5113485;28;20051;-83
2022/04/27 05:55:13;;;;;;;18.23;15.80;;;6.40;72.20;;;;;;5098859;28;20040;-85
2022/04/27 05:57:40;;;;;;;23.70;18.35;;;6.40;72.30;;;;;;5114236;28;20055;-84
2022/04/27 06:00:07;;;;;;;20.80;17.33;;;6.40;72.40;;;;;;5114725;28;20088;-84
2022/04/27 06:02:34;;;;;;;18.58;16.58;;;6.40;72.50;;;;;;5113139;28;20055;-85
2022/04/27 06:05:01;;;;;;;22.83;18.42;;;6.50;72.60;;;;;;5111849;28;20043;-84
2022/04/27 06:07:28;;;;;;;24.88;19.50;;;6.50;72.70;;;;;;5113219;28;20471;-84
2022/04/27 06:09:55;;;;;;;23.77;18.63;;;6.60;72.90;;;;;;5112815;28;20505;-83
2022/04/27 06:12:25;;;;;;;23.48;19.27;;;6.60;73.00;;;;;;5115145;28;20081;-84
2022/04/27 06:14:52;;;;;;;20.95;18.70;;;6.70;73.10;;;;;;5112938;28;20105;-83
2022/04/27 06:17:19;;;;;;;24.45;19.63;;;6.70;73.30;;;;;;5111607;28;20463;-84
2022/04/27 06:19:45;;;;;;;26.27;19.25;;;6.80;73.40;;;;;;5112866;28;20455;-83
2022/04/27 06:22:12;;;;;;;22.08;18.98;;;6.80;73.50;;;;;;5112208;27;20073;-83
2022/04/27 06:24:40;;;;;;;26.60;19.63;;;6.90;73.60;;;;;;5113820;28;20104;-83
2022/04/27 06:27:07;;;;;;;24.15;20.10;;;6.90;73.70;;;;;;5114084;28;20055;-84
2022/04/27 06:29:34;;;;;;;27.60;19.85;;;7.00;73.80;;;;;;5112548;28;20463;-84
2022/04/27 06:32:01;;;;;;;26.75;20.58;;;7.10;73.80;;;;;;5112384;28;20051;-84
2022/04/27 06:34:28;;;;;;;24.63;20.52;;;7.20;73.90;;;;;;5112369;28;20052;-83
2022/04/27 06:36:56;;;;;;;28.05;20.70;;;7.30;73.90;;;;;;5112211;28;20039;-83
2022/04/27 06:39:23;;;;;;;24.17;20.90;;;7.40;74.00;;;;;;5114121;28;20105;-83
2022/04/27 06:41:50;;;;;;;24.73;20.42;;;7.40;74.00;;;;;;5112343;28;20051;-83
2022/04/27 06:44:17;;;;;;;25.17;20.33;;;7.50;74.00;;;;;;5110799;28;20050;-83
2022/04/27 06:46:44;;;;;;;24.83;20.13;;;7.60;74.10;;;;;;5112046;28;20516;-83
2022/04/27 06:49:11;;;;;;;29.33;20.00;;;7.60;74.10;;;;;;5112177;28;20047;-82
2022/04/27 06:51:39;;;;;;;24.58;19.73;;;7.70;74.10;;;;;;5112849;27;20129;-83
2022/04/27 06:54:06;;;;;;;24.90;18.05;;;7.90;74.20;;;;;;5113242;28;20100;-83
2022/04/27 06:56:33;;;;;;;22.85;18.83;;;7.90;74.10;;;;;;5111996;28;20052;-83
2022/04/27 06:59:00;;;;;;;23.88;18.08;;;8.00;74.10;;;;;;5111832;28;20044;-83
2022/04/27 07:01:27;;;;;;;20.80;17.73;;;8.00;74.10;;;;;;5111818;28;20467;-82
2022/04/27 07:06:41;;;;;;;25.00;18.08;;;8.20;74.00;;;;;;5109952;28;20093;-82
2022/04/27 07:09:10;;;;;;;21.92;17.70;;;8.30;74.00;;;;;;5113178;28;20101;-83
2022/04/27 07:11:40;;;;;;;23.58;17.52;;;8.40;73.90;;;;;;5106430;28;20051;-82
2022/04/27 07:14:08;;;;;;;22.38;17.00;;;8.50;73.90;;;;;;5103157;28;20047;-82
2022/04/27 07:16:35;;;;;;;20.63;17.23;;;8.50;73.80;;;;;;5109312;28;20047;-82
2022/04/27 07:19:03;;;;;;;26.63;16.40;;;8.60;73.70;;;;;;5093852;28;20040;-83
2022/04/27 07:21:29;;;;;;;23.10;16.95;;;8.70;73.60;;;;;;5097063;28;20093;-82
2022/04/27 07:23:58;;;;;;;23.00;16.88;;;8.70;73.60;;;;;;5092531;28;20059;-82
2022/04/27 07:26:25;;;;;;;22.38;17.02;;;8.80;73.50;;;;;;5097809;28;20402;-82
2022/04/27 07:28:51;;;;;;;24.52;16.83;;;8.90;73.40;;;;;;5097796;28;20112;-81
2022/04/27 07:31:18;;;;;;;25.23;17.15;;;8.90;73.30;;;;;;5095007;28;20040;-81
2022/04/27 07:33:45;;;;;;;21.02;15.63;;;9.00;73.20;;;;;;5109030;28;20450;-81
2022/04/27 07:36:12;;;;;;;23.20;16.17;;;9.00;73.10;;;;;;5097191;28;20105;-82
2022/04/27 07:38:40;;;;;;;20.10;14.93;;;9.10;73.00;;;;;;5097140;28;20402;-82
2022/04/27 07:41:07;;;;;;;20.38;15.15;;;9.20;72.90;;;;;;5099162;28;20462;-82
2022/04/27 07:43:35;;;;;;;21.00;16.33;;;9.30;72.80;;;;;;5108899;28;20047;-81
2022/04/27 07:46:05;;;;;;;21.95;15.48;;;9.40;72.70;;;;;;5093253;28;20089;-81
2022/04/27 07:48:34;;;;;;;20.15;14.75;;;9.40;72.60;;;;;;5095643;28;20502;-81
2022/04/27 07:51:03;;;;;;;21.45;15.38;;;9.40;72.50;;;;;;5097654;28;20059;-81
2022/04/27 07:53:30;;;;;;;19.52;15.15;;;9.50;72.40;;;;;;5102114;28;20098;-83
2022/04/27 07:55:57;;;;;;;18.42;14.48;;;9.60;72.20;;;;;;5105353;28;20090;-81
2022/04/27 07:58:24;;;;;;;17.35;14.10;;;9.60;72.10;;;;;;5095810;28;20097;-81
2022/04/27 08:00:51;;;;;;;18.02;13.07;;;9.70;72.00;;;;;;5093700;28;20101;-81
2022/04/27 08:03:17;;;;;;;22.27;13.98;;;9.80;71.80;;;;;;5096968;28;20109;-80
2022/04/27 08:05:45;;;;;;;17.17;12.77;;;9.90;71.70;;;;;;5096589;28;20044;-81
2022/04/27 08:08:12;;;;;;;19.55;13.75;;;9.90;71.50;;;;;;5096776;28;20040;-81
2022/04/27 08:10:44;;;;;;;20.63;13.32;;;10.00;71.30;;;;;;5097177;28;20039;-81
2022/04/27 08:13:12;;;;;;;17.95;12.32;;;10.10;71.10;;;;;;5094108;28;20501;-80
2022/04/27 08:15:39;;;;;;;15.43;12.80;;;10.20;70.90;;;;;;5094709;28;20052;-81
2022/04/27 08:18:07;;;;;;;16.25;11.80;;;10.20;70.70;;;;;;5097373;28;20054;-81
2022/04/27 08:23:23;;;;;;;15.20;10.98;;;10.40;70.30;;;;;;5101488;28;20048;-81
2022/04/27 08:25:51;;;;;;;18.83;11.35;;;10.50;70.10;;;;;;5096616;28;20047;-81
2022/04/27 08:28:19;;;;;;;14.43;11.23;;;10.60;69.80;;;;;;5094599;28;20044;-82
2022/04/27 08:30:47;;;;;;;17.88;11.02;;;10.60;69.60;;;;;;5093648;28;20044;-81
2022/04/27 08:33:15;;;;;;;14.35;11.27;;;10.70;69.30;;;;;;5107766;28;20048;-82
2022/04/27 08:35:43;;;;;;;15.63;11.05;;;10.90;69.10;;;;;;5097896;28;20098;-83
2022/04/27 08:38:27;;;;;;;14.63;10.00;;;10.90;68.90;;;;;;5101442;28;20062;-82
2022/04/27 08:40:55;;;;;;;18.42;10.70;;;10.90;68.60;;;;;;5105235;28;20056;-83
2022/04/27 08:43:23;;;;;;;14.32;9.57;;;11.10;68.40;;;;;;5095093;28;20074;-84
2022/04/27 08:45:51;;;;;;;14.48;10.18;;;11.10;68.20;;;;;;5096819;28;20502;-82
2022/04/27 08:48:18;;;;;;;14.55;10.10;;;11.20;67.90;;;;;;5100441;28;20059;-81
2022/04/27 08:50:45;;;;;;;15.73;9.57;;;11.30;67.60;;;;;;5100573;28;20513;-82
2022/04/27 08:53:13;;;;;;;16.25;9.88;;;11.40;67.40;;;;;;5100504;28;20044;-82
2022/04/27 08:55:41;;;;;;;14.90;10.23;;;11.50;67.20;;;;;;5100433;28;20096;-81
2022/04/27 08:58:15;;;;;;;17.80;9.85;;;11.60;66.90;;;;;;5097072;28;20074;-83
2022/04/27 09:01:01;;;;;;;12.68;8.95;;;11.70;66.70;;;;;;5096350;28;20035;-82
2022/04/27 09:03:32;;;;;;;17.50;9.07;;;11.70;66.30;;;;;;5110448;28;20490;-82
2022/04/27 09:06:08;;;;;;;12.38;8.65;;;11.90;66.10;;;;;;5101222;28;20048;-81
2022/04/27 09:08:46;;;;;;;14.82;8.63;;;11.90;65.70;;;;;;5106282;28;20048;-83
2022/04/27 09:11:27;;;;;;;14.18;8.10;;;12.00;65.40;;;;;;5106384;28;20493;-82
2022/04/27 09:13:55;;;;;;;17.13;8.45;;;12.10;65.10;;;;;;5100262;28;20059;-82
2022/04/27 09:20:46;;;;;;;10.75;8.30;;;12.10;64.90;;;;;;5111535;28;20142;-82
2022/04/27 09:22:03;;;;;;;14.15;7.75;;;12.40;64.40;;;;;;5094676;28;20040;-82
2022/04/27 09:24:47;;;;;;;13.40;8.05;;;12.40;64.20;;;;;;5095897;28;20131;-82
2022/04/27 09:27:18;;;;;;;12.32;7.57;;;12.50;63.90;;;;;;5095506;28;20563;-82
2022/04/27 09:30:07;;;;;;;11.50;7.38;;;12.60;63.70;;;;;;5100860;28;20070;-83
2022/04/27 09:32:34;;;;;;;10.65;6.82;;;12.70;63.40;;;;;;5099440;28;20083;-81
2022/04/27 09:35:03;;;;;;;11.75;7.20;;;12.80;63.20;;;;;;5099885;28;20078;-82
2022/04/27 09:37:39;;;;;;;12.30;7.70;;;12.80;63.00;;;;;;5099246;28;20093;-82
2022/04/27 09:40:06;;;;;;;11.73;7.18;;;12.90;62.70;;;;;;5096079;28;20112;-82
2022/04/27 09:42:35;;;;;;;10.00;6.65;;;13.00;62.50;;;;;;5098635;28;20472;-82
2022/04/27 09:45:18;;;;;;;13.60;8.20;;;13.10;62.30;;;;;;5100333;28;20052;-81
2022/04/27 09:47:57;;;;;;;9.88;7.18;;;13.20;62.00;;;;;;5106676;28;20497;-81
2022/04/27 09:50:24;;;;;;;15.65;7.78;;;13.20;61.70;;;;;;5108265;28;20050;-81
2022/04/27 09:52:55;;;;;;;13.02;6.65;;;13.30;61.40;;;;;;5108237;28;20052;-82
2022/04/27 09:55:24;;;;;;;13.90;7.25;;;13.40;61.20;;;;;;5097779;28;20510;-81
2022/04/27 09:57:57;;;;;;;12.95;6.93;;;13.40;61.00;;;;;;5095293;28;20498;-81
2022/04/27 10:00:25;;;;;;;9.02;6.35;;;13.50;60.80;;;;;;5099156;28;20055;-81
2022/04/27 10:02:53;;;;;;;13.82;6.68;;;13.60;60.70;;;;;;5099102;28;20535;-81
2022/04/27 10:05:23;;;;;;;13.02;6.15;;;13.60;60.50;;;;;;5099291;28;20121;-81
2022/04/27 10:07:52;;;;;;;9.40;6.50;;;13.80;60.40;;;;;;5099405;28;20093;-81
2022/04/27 10:10:19;;;;;;;10.13;6.57;;;13.80;60.20;;;;;;5097186;28;20471;-82
2022/04/27 10:12:48;;;;;;;10.45;5.80;;;13.90;60.00;;;;;;5096713;28;20414;-81
2022/04/27 10:15:15;;;;;;;11.95;6.32;;;14.00;59.90;;;;;;5098781;28;20048;-81
2022/04/27 10:18:01;;;;;;;9.98;6.07;;;14.00;59.80;;;;;;5098991;28;20051;-82
2022/04/27 10:20:35;;;;;;;11.13;7.18;;;14.10;59.60;;;;;;5099002;28;20048;-81
2022/04/27 10:23:28;;;;;;;9.63;5.90;;;14.20;59.40;;;;;;5098905;28;20051;-82
2022/04/27 10:26:12;;;;;;;10.63;6.03;;;14.30;59.20;;;;;;5099059;28;20047;-82
2022/04/27 10:28:43;;;;;;;9.23;6.28;;;14.40;58.90;;;;;;5096304;28;20052;-82
2022/04/27 10:31:10;;;;;;;11.40;6.32;;;14.40;58.80;;;;;;5110747;27;20089;-82
2022/04/27 10:33:41;;;;;;;9.90;6.00;;;14.50;58.70;;;;;;5096903;28;20048;-81
2022/04/27 10:36:21;;;;;;;11.25;6.55;;;14.50;58.50;;;;;;5109492;28;20090;-82
2022/04/27 10:39:11;;;;;;;10.00;5.97;;;14.60;58.30;;;;;;5099677;28;20575;-82
2022/04/27 10:41:47;;;;;;;15.27;7.47;;;14.70;58.20;;;;;;5101047;28;20044;-81
2022/04/27 10:44:15;;;;;;;9.90;6.10;;;14.70;58.00;;;;;;5106873;28;20044;-82
2022/04/27 10:46:44;;;;;;;13.15;6.78;;;14.80;57.80;;;;;;5108782;28;20048;-82
2022/04/27 10:49:23;;;;;;;13.02;6.63;;;14.90;57.60;;;;;;5095579;28;20048;-82
2022/04/27 10:52:01;;;;;;;13.80;6.57;;;14.90;57.40;;;;;;5095249;27;20048;-81
2022/04/27 10:54:33;;;;;;;8.65;5.45;;;15.00;57.20;;;;;;5094066;28;20044;-81
2022/04/27 10:57:15;;;;;;;8.90;6.22;;;15.10;57.00;;;;;;5093281;28;20067;-81
2022/04/27 10:59:56;;;;;;;8.98;5.82;;;15.20;56.70;;;;;;5097869;28;20055;-82
2022/04/27 11:02:39;;;;;;;10.95;5.85;;;15.20;56.50;;;;;;5098012;28;20048;-82
2022/04/27 11:05:13;;;;;;;12.93;6.87;;;15.30;56.30;;;;;;5104475;28;20515;-81
2022/04/27 11:08:14;;;;;;;9.75;6.63;;;15.40;56.10;;;;;;5108542;27;20048;-82
2022/04/27 11:10:42;;;;;;;11.02;7.32;;;15.40;55.90;;;;;;5098213;28;20051;-81
2022/04/27 11:13:11;;;;;;;9.50;6.50;;;15.40;55.70;;;;;;5094859;28;20056;-82
2022/04/27 11:15:38;;;;;;;12.10;6.53;;;15.50;55.50;;;;;;5109292;28;20112;-81
2022/04/27 11:18:05;;;;;;;11.38;6.80;;;15.50;55.40;;;;;;5111407;28;20048;-82
2022/04/27 11:20:38;;;;;;;10.68;6.35;;;15.60;55.20;;;;;;5100991;28;20571;-82
2022/04/27 11:23:08;;;;;;;11.43;6.20;;;15.60;55.10;;;;;;5097735;28;20109;-82
2022/04/27 11:25:42;;;;;;;13.07;7.82;;;15.70;54.90;;;;;;5097736;28;20051;-81
2022/04/27 11:28:11;;;;;;;13.73;6.90;;;15.70;54.80;;;;;;5094493;28;20047;-82
2022/04/27 11:30:39;;;;;;;12.98;7.72;;;15.80;54.60;;;;;;5108980;28;20508;-81
2022/04/27 11:33:06;;;;;;;10.30;6.38;;;15.80;54.50;;;;;;5097265;28;20048;-82
2022/04/27 11:35:42;;;;;;;10.02;6.60;;;15.80;54.20;;;;;;5097589;28;20048;-82
2022/04/27 11:38:09;;;;;;;13.30;7.57;;;15.90;54.10;;;;;;5097415;28;20573;-83
2022/04/27 11:40:38;;;;;;;10.77;6.95;;;15.90;53.90;;;;;;5094655;28;20117;-82
2022/04/27 11:43:06;;;;;;;13.93;7.53;;;15.90;53.80;;;;;;5108953;28;20039;-82
2022/04/27 11:45:33;;;;;;;12.13;7.68;;;15.90;53.70;;;;;;5096499;28;20073;-81
2022/04/27 11:48:03;;;;;;;11.60;7.95;;;15.90;53.60;;;;;;5096771;28;20044;-82
2022/04/27 11:50:32;;;;;;;11.30;6.80;;;15.90;53.50;;;;;;5097188;28;20051;-82
2022/04/27 11:53:05;;;;;;;10.77;6.72;;;15.90;53.40;;;;;;5097137;28;20129;-83
2022/04/27 11:55:34;;;;;;;9.93;7.15;;;16.00;53.30;;;;;;5098686;28;20120;-83
2022/04/27 11:58:02;;;;;;;13.63;7.85;;;16.00;53.30;;;;;;5092518;28;20085;-83
2022/04/27 12:00:31;;;;;;;15.27;9.55;;;16.00;53.20;;;;;;5108869;28;20532;-83
2022/04/27 12:03:06;;;;;;;10.43;8.00;;;16.10;53.10;;;;;;5091897;28;20044;-82
2022/04/27 12:05:36;;;;;;;14.95;9.18;;;16.10;52.90;;;;;;5096980;28;20517;-82
2022/04/27 12:08:12;;;;;;;11.85;8.73;;;16.20;52.90;;;;;;5096924;28;20123;-82
2022/04/27 12:10:43;;;;;;;15.00;9.20;;;16.20;52.80;;;;;;5098786;27;20457;-82
2022/04/27 12:13:10;;;;;;;11.45;7.93;;;16.30;52.70;;;;;;5108172;28;20048;-83
2022/04/27 12:15:55;;;;;;;9.63;7.45;;;16.30;52.60;;;;;;5093336;28;20051;-83
2022/04/27 12:18:27;;;;;;;10.88;7.43;;;16.40;52.50;;;;;;5096691;28;20040;-82
2022/04/27 12:20:56;;;;;;;10.38;6.90;;;16.40;52.50;;;;;;5096504;28;20059;-82
2022/04/27 12:23:29;;;;;;;10.40;6.75;;;16.50;52.40;;;;;;5096644;28;20566;-82
2022/04/27 12:25:59;;;;;;;12.75;8.13;;;16.60;52.30;;;;;;5098299;28;20048;-82
2022/04/27 12:28:32;;;;;;;12.00;7.28;;;16.60;52.20;;;;;;5095396;28;20044;-82
2022/04/27 12:31:09;;;;;;;11.30;7.45;;;16.70;52.00;;;;;;5092464;28;20521;-82
2022/04/27 12:33:45;;;;;;;12.23;7.07;;;16.70;51.80;;;;;;5107769;28;20059;-82
2022/04/27 12:39:11;;;;;;;9.68;6.10;;;16.90;51.50;;;;;;5091165;28;20101;-82
2022/04/27 12:41:47;;;;;;;8.48;5.97;;;16.90;51.40;;;;;;5091816;28;20391;-82
2022/04/27 12:44:15;;;;;;;12.43;5.85;;;16.90;51.40;;;;;;5076417;28;20041;-81
2022/04/27 12:47:07;;;;;;;11.37;6.40;;;17.00;51.40;;;;;;5076148;28;20057;-82
2022/04/27 12:49:45;;;;;;;11.00;6.00;;;17.10;51.30;;;;;;5076314;28;20048;-82
2022/04/27 12:52:23;;;;;;;9.57;6.25;;;17.20;51.20;;;;;;5074949;28;20040;-82
2022/04/27 12:55:04;;;;;;;11.93;7.97;;;17.20;51.10;;;;;;5072704;28;20083;-82
2022/04/27 12:57:50;;;;;;;10.82;6.97;;;17.20;51.00;;;;;;5087679;28;20078;-82
2022/04/27 13:00:23;;;;;;;11.93;6.38;;;17.30;50.90;;;;;;5076026;28;20106;-81
2022/04/27 13:02:50;;;;;;;8.30;6.20;;;17.30;50.80;;;;;;5075993;28;20094;-82
2022/04/27 13:05:17;;;;;;;10.65;6.78;;;17.40;50.70;;;;;;5079110;28;20048;-81
2022/04/27 13:07:44;;;;;;;10.30;6.50;;;17.40;50.50;;;;;;5085961;28;20105;-82
2022/04/27 13:12:56;;;;;;;12.82;7.25;;;17.40;50.40;;;;;;5072060;28;20102;-81
2022/04/27 13:15:23;;;;;;;10.65;5.93;;;17.40;50.30;;;;;;5075708;28;20056;-81
2022/04/27 13:17:50;;;;;;;9.10;5.72;;;17.40;50.20;;;;;;5075750;28;20049;-82
2022/04/27 13:20:19;;;;;;;10.15;6.32;;;17.50;50.20;;;;;;5075660;28;20080;-82
2022/04/27 13:22:45;;;;;;;11.93;7.13;;;17.50;50.10;;;;;;5075516;28;20523;-82